sensor_id;sensor_type;location;lat;lon;timestamp;P1;durP1;ratioP1;P2;durP2;ratioP2
9413;SDS011;4746;35.664;139.738;2022-09-09T00:01:49;1.30;;;1.20;;
9413;SDS011;4746;35.664;139.738;2022-09-09T00:05:31;1.90;;;1.60;;
9413;SDS011;4746;35.664;139.738;2022-09-09T00:08:08;3.60;;;1.85;;
9413;SDS011;4746;35.664;139.738;2022-09-09T00:10:58;1.70;;;1.60;;
9413;SDS011;4746;35.664;139.738;2022-09-09T00:16:17;3.95;;;2.10;;
9413;SDS011;4746;35.664;139.738;2022-09-09T00:22:17;3.38;;;2.15;;
9413;SDS011;4746;35.664;139.738;2022-09-09T00:24:52;2.22;;;1.80;;
9413;SDS011;4746;35.664;139.738;2022-09-09T00:27:29;2.90;;;2.08;;
9413;SDS011;4746;35.664;139.738;2022-09-09T00:32:54;2.75;;;2.55;;
9413;SDS011;4746;35.664;139.738;2022-09-09T00:38:15;2.33;;;2.13;;
9413;SDS011;4746;35.664;139.738;2022-09-09T00:40:50;2.80;;;2.60;;
9413;SDS011;4746;35.664;139.738;2022-09-09T00:48:51;3.38;;;3.17;;
9413;SDS011;4746;35.664;139.738;2022-09-09T00:57:37;3.58;;;3.30;;
9413;SDS011;4746;35.664;139.738;2022-09-09T01:00:23;4.43;;;3.30;;
9413;SDS011;4746;35.664;139.738;2022-09-09T01:06:04;3.55;;;3.35;;
9413;SDS011;4746;35.664;139.738;2022-09-09T01:15:09;3.50;;;3.15;;
9413;SDS011;4746;35.664;139.738;2022-09-09T01:18:10;4.63;;;4.25;;
9413;SDS011;4746;35.664;139.738;2022-09-09T01:20:53;4.05;;;3.70;;
9413;SDS011;4746;35.664;139.738;2022-09-09T01:27:01;5.32;;;4.82;;
9413;SDS011;4746;35.664;139.738;2022-09-09T01:29:32;5.15;;;4.75;;
9413;SDS011;4746;35.664;139.738;2022-09-09T01:32:02;5.40;;;5.10;;
9413;SDS011;4746;35.664;139.738;2022-09-09T01:35:54;5.57;;;5.18;;
9413;SDS011;4746;35.664;139.738;2022-09-09T01:38:33;7.03;;;6.45;;
9413;SDS011;4746;35.664;139.738;2022-09-09T01:41:03;5.38;;;5.03;;
9413;SDS011;4746;35.664;139.738;2022-09-09T01:43:31;6.25;;;5.85;;
9413;SDS011;4746;35.664;139.738;2022-09-09T01:45:59;6.35;;;5.95;;
9413;SDS011;4746;35.664;139.738;2022-09-09T01:48:28;6.50;;;6.13;;
9413;SDS011;4746;35.664;139.738;2022-09-09T01:50:56;6.85;;;6.35;;
9413;SDS011;4746;35.664;139.738;2022-09-09T01:53:24;7.05;;;6.30;;
9413;SDS011;4746;35.664;139.738;2022-09-09T01:56:00;7.03;;;6.53;;
9413;SDS011;4746;35.664;139.738;2022-09-09T02:04:42;7.63;;;7.13;;
9413;SDS011;4746;35.664;139.738;2022-09-09T02:10:20;9.48;;;8.57;;
9413;SDS011;4746;35.664;139.738;2022-09-09T02:13:10;8.93;;;8.18;;
9413;SDS011;4746;35.664;139.738;2022-09-09T02:16:01;8.70;;;8.07;;
9413;SDS011;4746;35.664;139.738;2022-09-09T02:18:56;10.65;;;9.68;;
9413;SDS011;4746;35.664;139.738;2022-09-09T02:21:52;9.38;;;8.65;;
9413;SDS011;4746;35.664;139.738;2022-09-09T02:24:21;8.73;;;8.00;;
9413;SDS011;4746;35.664;139.738;2022-09-09T02:26:51;11.85;;;8.57;;
9413;SDS011;4746;35.664;139.738;2022-09-09T02:29:28;9.00;;;8.15;;
9413;SDS011;4746;35.664;139.738;2022-09-09T02:32:12;8.50;;;7.90;;
9413;SDS011;4746;35.664;139.738;2022-09-09T02:34:55;6.72;;;6.22;;
9413;SDS011;4746;35.664;139.738;2022-09-09T02:37:30;6.57;;;6.18;;
9413;SDS011;4746;35.664;139.738;2022-09-09T02:40:04;5.68;;;5.25;;
9413;SDS011;4746;35.664;139.738;2022-09-09T02:42:39;4.93;;;4.53;;
9413;SDS011;4746;35.664;139.738;2022-09-09T02:45:09;4.63;;;4.32;;
9413;SDS011;4746;35.664;139.738;2022-09-09T02:47:50;5.18;;;4.88;;
9413;SDS011;4746;35.664;139.738;2022-09-09T02:50:36;4.05;;;3.83;;
9413;SDS011;4746;35.664;139.738;2022-09-09T02:54:01;4.63;;;3.92;;
9413;SDS011;4746;35.664;139.738;2022-09-09T02:56:43;4.07;;;3.78;;
9413;SDS011;4746;35.664;139.738;2022-09-09T02:59:20;4.97;;;4.63;;
9413;SDS011;4746;35.664;139.738;2022-09-09T03:01:51;7.43;;;6.90;;
9413;SDS011;4746;35.664;139.738;2022-09-09T03:04:18;5.80;;;5.47;;
9413;SDS011;4746;35.664;139.738;2022-09-09T03:06:46;4.10;;;3.72;;
9413;SDS011;4746;35.664;139.738;2022-09-09T03:09:14;4.15;;;3.85;;
9413;SDS011;4746;35.664;139.738;2022-09-09T03:11:42;4.18;;;3.88;;
9413;SDS011;4746;35.664;139.738;2022-09-09T03:14:10;5.00;;;4.60;;
9413;SDS011;4746;35.664;139.738;2022-09-09T03:16:37;6.28;;;5.85;;
9413;SDS011;4746;35.664;139.738;2022-09-09T03:19:05;6.40;;;5.88;;
9413;SDS011;4746;35.664;139.738;2022-09-09T03:21:32;5.43;;;4.97;;
9413;SDS011;4746;35.664;139.738;2022-09-09T03:24:00;4.90;;;4.50;;
9413;SDS011;4746;35.664;139.738;2022-09-09T03:26:29;3.75;;;3.45;;
9413;SDS011;4746;35.664;139.738;2022-09-09T03:28:57;4.43;;;3.63;;
9413;SDS011;4746;35.664;139.738;2022-09-09T03:31:26;3.80;;;3.60;;
9413;SDS011;4746;35.664;139.738;2022-09-09T03:33:56;3.55;;;3.35;;
9413;SDS011;4746;35.664;139.738;2022-09-09T03:36:27;3.38;;;3.17;;
9413;SDS011;4746;35.664;139.738;2022-09-09T03:38:55;3.47;;;3.25;;
9413;SDS011;4746;35.664;139.738;2022-09-09T03:41:23;4.50;;;3.40;;
9413;SDS011;4746;35.664;139.738;2022-09-09T03:43:52;2.85;;;2.63;;
9413;SDS011;4746;35.664;139.738;2022-09-09T03:46:21;3.40;;;3.10;;
9413;SDS011;4746;35.664;139.738;2022-09-09T03:48:51;3.40;;;3.20;;
9413;SDS011;4746;35.664;139.738;2022-09-09T03:51:19;3.95;;;3.55;;
9413;SDS011;4746;35.664;139.738;2022-09-09T03:53:47;3.22;;;3.03;;
9413;SDS011;4746;35.664;139.738;2022-09-09T03:56:15;2.72;;;2.53;;
9413;SDS011;4746;35.664;139.738;2022-09-09T03:58:42;2.80;;;2.60;;
9413;SDS011;4746;35.664;139.738;2022-09-09T04:01:11;2.75;;;2.55;;
9413;SDS011;4746;35.664;139.738;2022-09-09T04:03:41;3.55;;;3.17;;
9413;SDS011;4746;35.664;139.738;2022-09-09T04:06:10;4.30;;;3.90;;
9413;SDS011;4746;35.664;139.738;2022-09-09T04:08:40;3.38;;;3.17;;
9413;SDS011;4746;35.664;139.738;2022-09-09T04:11:07;3.88;;;3.47;;
9413;SDS011;4746;35.664;139.738;2022-09-09T04:13:35;2.40;;;2.10;;
9413;SDS011;4746;35.664;139.738;2022-09-09T04:16:08;2.30;;;2.10;;
9413;SDS011;4746;35.664;139.738;2022-09-09T04:18:40;2.67;;;2.17;;
9413;SDS011;4746;35.664;139.738;2022-09-09T04:21:09;3.38;;;2.30;;
9413;SDS011;4746;35.664;139.738;2022-09-09T04:23:37;2.10;;;2.00;;
9413;SDS011;4746;35.664;139.738;2022-09-09T04:26:05;2.42;;;2.25;;
9413;SDS011;4746;35.664;139.738;2022-09-09T04:28:35;2.65;;;2.03;;
9413;SDS011;4746;35.664;139.738;2022-09-09T04:31:05;1.92;;;1.83;;
9413;SDS011;4746;35.664;139.738;2022-09-09T04:33:44;3.05;;;1.88;;
9413;SDS011;4746;35.664;139.738;2022-09-09T04:36:12;2.00;;;1.85;;
9413;SDS011;4746;35.664;139.738;2022-09-09T04:38:39;1.98;;;1.88;;
9413;SDS011;4746;35.664;139.738;2022-09-09T04:41:07;3.10;;;2.00;;
9413;SDS011;4746;35.664;139.738;2022-09-09T04:43:36;2.95;;;2.13;;
9413;SDS011;4746;35.664;139.738;2022-09-09T04:46:05;3.97;;;1.70;;
9413;SDS011;4746;35.664;139.738;2022-09-09T04:48:33;2.22;;;1.70;;
9413;SDS011;4746;35.664;139.738;2022-09-09T04:51:02;1.92;;;1.80;;
9413;SDS011;4746;35.664;139.738;2022-09-09T04:53:33;3.08;;;1.75;;
9413;SDS011;4746;35.664;139.738;2022-09-09T04:56:02;1.70;;;1.60;;
9413;SDS011;4746;35.664;139.738;2022-09-09T04:58:33;1.90;;;1.70;;
9413;SDS011;4746;35.664;139.738;2022-09-09T05:01:08;2.95;;;2.28;;
9413;SDS011;4746;35.664;139.738;2022-09-09T05:03:44;2.38;;;2.17;;
9413;SDS011;4746;35.664;139.738;2022-09-09T05:06:13;3.10;;;2.30;;
9413;SDS011;4746;35.664;139.738;2022-09-09T05:08:44;3.97;;;2.63;;
9413;SDS011;4746;35.664;139.738;2022-09-09T05:13:45;2.38;;;2.28;;
9413;SDS011;4746;35.664;139.738;2022-09-09T05:16:13;2.30;;;2.10;;
9413;SDS011;4746;35.664;139.738;2022-09-09T05:18:43;2.80;;;2.58;;
9413;SDS011;4746;35.664;139.738;2022-09-09T05:21:13;2.50;;;2.30;;
9413;SDS011;4746;35.664;139.738;2022-09-09T05:23:42;2.60;;;2.40;;
9413;SDS011;4746;35.664;139.738;2022-09-09T05:26:13;3.28;;;2.70;;
9413;SDS011;4746;35.664;139.738;2022-09-09T05:28:43;3.20;;;3.00;;
9413;SDS011;4746;35.664;139.738;2022-09-09T05:31:13;2.40;;;2.17;;
9413;SDS011;4746;35.664;139.738;2022-09-09T05:33:43;2.92;;;2.60;;
9413;SDS011;4746;35.664;139.738;2022-09-09T05:36:21;2.50;;;2.30;;
9413;SDS011;4746;35.664;139.738;2022-09-09T05:38:49;3.00;;;2.08;;
9413;SDS011;4746;35.664;139.738;2022-09-09T05:41:19;3.70;;;2.30;;
9413;SDS011;4746;35.664;139.738;2022-09-09T05:43:48;3.75;;;2.72;;
9413;SDS011;4746;35.664;139.738;2022-09-09T05:46:18;2.97;;;2.22;;
9413;SDS011;4746;35.664;139.738;2022-09-09T05:48:50;3.13;;;2.80;;
9413;SDS011;4746;35.664;139.738;2022-09-09T05:51:24;4.85;;;2.85;;
9413;SDS011;4746;35.664;139.738;2022-09-09T05:53:55;3.55;;;3.28;;
9413;SDS011;4746;35.664;139.738;2022-09-09T05:56:27;3.33;;;3.13;;
9413;SDS011;4746;35.664;139.738;2022-09-09T05:58:55;3.70;;;3.50;;
9413;SDS011;4746;35.664;139.738;2022-09-09T06:01:29;3.97;;;3.38;;
9413;SDS011;4746;35.664;139.738;2022-09-09T06:04:01;3.53;;;3.22;;
9413;SDS011;4746;35.664;139.738;2022-09-09T06:06:35;3.83;;;3.53;;
9413;SDS011;4746;35.664;139.738;2022-09-09T06:09:05;3.75;;;3.55;;
9413;SDS011;4746;35.664;139.738;2022-09-09T06:11:36;3.45;;;3.25;;
9413;SDS011;4746;35.664;139.738;2022-09-09T06:14:06;3.63;;;3.42;;
9413;SDS011;4746;35.664;139.738;2022-09-09T06:16:35;4.18;;;3.83;;
9413;SDS011;4746;35.664;139.738;2022-09-09T06:19:08;4.40;;;4.10;;
9413;SDS011;4746;35.664;139.738;2022-09-09T06:21:37;3.47;;;3.28;;
9413;SDS011;4746;35.664;139.738;2022-09-09T06:24:06;3.97;;;3.63;;
9413;SDS011;4746;35.664;139.738;2022-09-09T06:26:35;4.47;;;3.50;;
9413;SDS011;4746;35.664;139.738;2022-09-09T06:29:08;3.85;;;3.60;;
9413;SDS011;4746;35.664;139.738;2022-09-09T06:31:36;3.00;;;2.80;;
9413;SDS011;4746;35.664;139.738;2022-09-09T06:34:05;3.53;;;2.88;;
9413;SDS011;4746;35.664;139.738;2022-09-09T06:36:35;3.50;;;3.30;;
9413;SDS011;4746;35.664;139.738;2022-09-09T06:39:05;3.60;;;3.40;;
9413;SDS011;4746;35.664;139.738;2022-09-09T06:41:36;3.63;;;3.28;;
9413;SDS011;4746;35.664;139.738;2022-09-09T06:44:04;3.40;;;3.10;;
9413;SDS011;4746;35.664;139.738;2022-09-09T06:46:32;4.03;;;3.72;;
9413;SDS011;4746;35.664;139.738;2022-09-09T06:49:05;4.15;;;3.03;;
9413;SDS011;4746;35.664;139.738;2022-09-09T06:51:35;4.07;;;3.78;;
9413;SDS011;4746;35.664;139.738;2022-09-09T06:54:08;3.92;;;3.42;;
9413;SDS011;4746;35.664;139.738;2022-09-09T06:56:38;2.97;;;2.78;;
9413;SDS011;4746;35.664;139.738;2022-09-09T06:59:08;4.63;;;2.90;;
9413;SDS011;4746;35.664;139.738;2022-09-09T07:01:38;3.83;;;3.50;;
9413;SDS011;4746;35.664;139.738;2022-09-09T07:04:09;2.80;;;2.70;;
9413;SDS011;4746;35.664;139.738;2022-09-09T07:06:42;2.45;;;2.35;;
9413;SDS011;4746;35.664;139.738;2022-09-09T07:09:12;2.60;;;2.40;;
9413;SDS011;4746;35.664;139.738;2022-09-09T07:11:43;3.30;;;2.42;;
9413;SDS011;4746;35.664;139.738;2022-09-09T07:14:14;3.03;;;2.72;;
9413;SDS011;4746;35.664;139.738;2022-09-09T07:16:42;3.00;;;2.60;;
9413;SDS011;4746;35.664;139.738;2022-09-09T07:19:12;2.92;;;2.72;;
9413;SDS011;4746;35.664;139.738;2022-09-09T07:21:40;3.40;;;2.42;;
9413;SDS011;4746;35.664;139.738;2022-09-09T07:24:09;2.85;;;2.65;;
9413;SDS011;4746;35.664;139.738;2022-09-09T07:26:38;2.40;;;2.30;;
9413;SDS011;4746;35.664;139.738;2022-09-09T07:29:06;2.63;;;2.42;;
9413;SDS011;4746;35.664;139.738;2022-09-09T07:31:35;2.47;;;2.38;;
9413;SDS011;4746;35.664;139.738;2022-09-09T07:34:05;2.45;;;2.28;;
9413;SDS011;4746;35.664;139.738;2022-09-09T07:36:34;2.72;;;2.53;;
9413;SDS011;4746;35.664;139.738;2022-09-09T07:39:05;3.00;;;2.70;;
9413;SDS011;4746;35.664;139.738;2022-09-09T07:41:37;2.83;;;2.63;;
9413;SDS011;4746;35.664;139.738;2022-09-09T07:44:12;3.47;;;3.28;;
9413;SDS011;4746;35.664;139.738;2022-09-09T07:46:52;3.67;;;3.38;;
9413;SDS011;4746;35.664;139.738;2022-09-09T07:49:20;3.95;;;3.47;;
9413;SDS011;4746;35.664;139.738;2022-09-09T07:51:48;4.47;;;4.07;;
9413;SDS011;4746;35.664;139.738;2022-09-09T07:54:16;3.88;;;3.58;;
9413;SDS011;4746;35.664;139.738;2022-09-09T07:56:49;3.65;;;3.33;;
9413;SDS011;4746;35.664;139.738;2022-09-09T07:59:17;3.90;;;3.60;;
9413;SDS011;4746;35.664;139.738;2022-09-09T08:01:47;3.75;;;3.45;;
9413;SDS011;4746;35.664;139.738;2022-09-09T08:04:20;4.28;;;3.95;;
9413;SDS011;4746;35.664;139.738;2022-09-09T08:06:51;3.90;;;3.65;;
9413;SDS011;4746;35.664;139.738;2022-09-09T08:09:22;4.30;;;4.00;;
9413;SDS011;4746;35.664;139.738;2022-09-09T08:11:54;4.78;;;4.38;;
9413;SDS011;4746;35.664;139.738;2022-09-09T08:14:23;4.57;;;4.20;;
9413;SDS011;4746;35.664;139.738;2022-09-09T08:16:51;4.72;;;4.43;;
9413;SDS011;4746;35.664;139.738;2022-09-09T08:19:19;4.60;;;4.20;;
9413;SDS011;4746;35.664;139.738;2022-09-09T08:21:47;4.47;;;4.18;;
9413;SDS011;4746;35.664;139.738;2022-09-09T08:24:15;4.25;;;3.95;;
9413;SDS011;4746;35.664;139.738;2022-09-09T08:26:48;6.28;;;4.30;;
9413;SDS011;4746;35.664;139.738;2022-09-09T08:29:16;7.28;;;4.25;;
9413;SDS011;4746;35.664;139.738;2022-09-09T08:31:48;6.35;;;5.10;;
9413;SDS011;4746;35.664;139.738;2022-09-09T08:34:22;4.82;;;4.43;;
9413;SDS011;4746;35.664;139.738;2022-09-09T08:36:52;5.07;;;4.65;;
9413;SDS011;4746;35.664;139.738;2022-09-09T08:39:21;4.80;;;3.75;;
9413;SDS011;4746;35.664;139.738;2022-09-09T08:53:01;4.28;;;3.88;;
9413;SDS011;4746;35.664;139.738;2022-09-09T08:55:48;5.72;;;4.68;;
9413;SDS011;4746;35.664;139.738;2022-09-09T08:58:19;3.92;;;3.63;;
9413;SDS011;4746;35.664;139.738;2022-09-09T09:03:53;4.10;;;3.80;;
9413;SDS011;4746;35.664;139.738;2022-09-09T09:09:40;4.55;;;4.25;;
9413;SDS011;4746;35.664;139.738;2022-09-09T09:12:30;4.75;;;4.35;;
9413;SDS011;4746;35.664;139.738;2022-09-09T09:15:18;4.22;;;3.83;;
9413;SDS011;4746;35.664;139.738;2022-09-09T09:17:51;3.78;;;3.00;;
9413;SDS011;4746;35.664;139.738;2022-09-09T09:20:21;3.20;;;2.55;;
9413;SDS011;4746;35.664;139.738;2022-09-09T09:23:24;3.53;;;3.22;;
9413;SDS011;4746;35.664;139.738;2022-09-09T09:26:06;4.22;;;3.45;;
9413;SDS011;4746;35.664;139.738;2022-09-09T09:28:39;3.17;;;2.88;;
9413;SDS011;4746;35.664;139.738;2022-09-09T09:31:08;3.40;;;3.10;;
9413;SDS011;4746;35.664;139.738;2022-09-09T09:33:47;3.60;;;3.30;;
9413;SDS011;4746;35.664;139.738;2022-09-09T09:36:19;3.80;;;3.08;;
9413;SDS011;4746;35.664;139.738;2022-09-09T09:38:59;3.80;;;3.30;;
9413;SDS011;4746;35.664;139.738;2022-09-09T09:47:14;2.72;;;2.50;;
9413;SDS011;4746;35.664;139.738;2022-09-09T09:49:55;3.00;;;2.70;;
9413;SDS011;4746;35.664;139.738;2022-09-09T09:52:28;3.30;;;2.83;;
9413;SDS011;4746;35.664;139.738;2022-09-09T09:55:02;4.20;;;2.88;;
9413;SDS011;4746;35.664;139.738;2022-09-09T09:57:38;3.45;;;2.78;;
9413;SDS011;4746;35.664;139.738;2022-09-09T10:00:13;3.17;;;2.83;;
9413;SDS011;4746;35.664;139.738;2022-09-09T10:02:48;3.55;;;2.72;;
9413;SDS011;4746;35.664;139.738;2022-09-09T10:05:25;3.63;;;2.97;;
9413;SDS011;4746;35.664;139.738;2022-09-09T10:23:09;3.13;;;2.30;;
9413;SDS011;4746;35.664;139.738;2022-09-09T10:26:12;4.20;;;2.50;;
9413;SDS011;4746;35.664;139.738;2022-09-09T10:37:37;2.85;;;2.65;;
9413;SDS011;4746;35.664;139.738;2022-09-09T10:46:37;3.47;;;2.75;;
9413;SDS011;4746;35.664;139.738;2022-09-09T10:57:52;5.00;;;3.05;;
9413;SDS011;4746;35.664;139.738;2022-09-09T11:00:46;3.38;;;3.00;;
9413;SDS011;4746;35.664;139.738;2022-09-09T11:03:27;3.85;;;2.97;;
9413;SDS011;4746;35.664;139.738;2022-09-09T11:08:40;4.63;;;2.70;;
9413;SDS011;4746;35.664;139.738;2022-09-09T11:16:53;4.10;;;3.55;;
9413;SDS011;4746;35.664;139.738;2022-09-09T11:19:40;4.15;;;2.70;;
9413;SDS011;4746;35.664;139.738;2022-09-09T11:25:23;3.28;;;2.03;;
9413;SDS011;4746;35.664;139.738;2022-09-09T11:28:32;2.95;;;2.17;;
9413;SDS011;4746;35.664;139.738;2022-09-09T11:37:17;3.85;;;2.60;;
9413;SDS011;4746;35.664;139.738;2022-09-09T11:40:34;2.42;;;2.08;;
9413;SDS011;4746;35.664;139.738;2022-09-09T11:43:08;2.20;;;1.85;;
9413;SDS011;4746;35.664;139.738;2022-09-09T11:45:38;3.83;;;2.38;;
9413;SDS011;4746;35.664;139.738;2022-09-09T11:48:29;2.55;;;2.35;;
9413;SDS011;4746;35.664;139.738;2022-09-09T11:51:11;3.15;;;2.60;;
9413;SDS011;4746;35.664;139.738;2022-09-09T11:54:00;3.28;;;2.30;;
9413;SDS011;4746;35.664;139.738;2022-09-09T11:56:48;4.68;;;2.70;;
9413;SDS011;4746;35.664;139.738;2022-09-09T11:59:26;3.67;;;3.08;;
9413;SDS011;4746;35.664;139.738;2022-09-09T12:05:09;6.78;;;3.42;;
9413;SDS011;4746;35.664;139.738;2022-09-09T12:10:23;3.90;;;2.67;;
9413;SDS011;4746;35.664;139.738;2022-09-09T12:13:15;4.55;;;3.25;;
9413;SDS011;4746;35.664;139.738;2022-09-09T12:15:51;3.75;;;3.35;;
9413;SDS011;4746;35.664;139.738;2022-09-09T12:18:23;4.35;;;3.10;;
9413;SDS011;4746;35.664;139.738;2022-09-09T12:23:55;4.00;;;3.40;;
9413;SDS011;4746;35.664;139.738;2022-09-09T12:26:52;4.22;;;3.00;;
9413;SDS011;4746;35.664;139.738;2022-09-09T12:29:43;3.17;;;2.88;;
9413;SDS011;4746;35.664;139.738;2022-09-09T12:32:36;3.60;;;2.50;;
9413;SDS011;4746;35.664;139.738;2022-09-09T12:35:09;3.92;;;2.83;;
9413;SDS011;4746;35.664;139.738;2022-09-09T12:37:55;3.97;;;2.45;;
9413;SDS011;4746;35.664;139.738;2022-09-09T12:40:31;3.22;;;2.28;;
9413;SDS011;4746;35.664;139.738;2022-09-09T12:43:26;2.83;;;2.63;;
9413;SDS011;4746;35.664;139.738;2022-09-09T12:46:00;2.72;;;2.33;;
9413;SDS011;4746;35.664;139.738;2022-09-09T12:48:37;4.20;;;2.33;;
9413;SDS011;4746;35.664;139.738;2022-09-09T12:51:18;3.75;;;2.60;;
9413;SDS011;4746;35.664;139.738;2022-09-09T12:53:58;3.33;;;2.20;;
9413;SDS011;4746;35.664;139.738;2022-09-09T12:56:32;3.88;;;2.30;;
9413;SDS011;4746;35.664;139.738;2022-09-09T12:59:01;6.05;;;2.20;;
9413;SDS011;4746;35.664;139.738;2022-09-09T13:01:30;2.47;;;1.85;;
9413;SDS011;4746;35.664;139.738;2022-09-09T13:03:59;2.75;;;1.90;;
9413;SDS011;4746;35.664;139.738;2022-09-09T13:06:28;3.78;;;2.10;;
9413;SDS011;4746;35.664;139.738;2022-09-09T13:08:59;4.22;;;2.42;;
9413;SDS011;4746;35.664;139.738;2022-09-09T13:11:30;2.72;;;1.92;;
9413;SDS011;4746;35.664;139.738;2022-09-09T13:14:04;3.08;;;2.67;;
9413;SDS011;4746;35.664;139.738;2022-09-09T13:16:34;7.78;;;2.60;;
9413;SDS011;4746;35.664;139.738;2022-09-09T13:19:07;4.90;;;2.28;;
9413;SDS011;4746;35.664;139.738;2022-09-09T13:21:41;4.22;;;2.42;;
9413;SDS011;4746;35.664;139.738;2022-09-09T13:24:32;2.85;;;2.30;;
9413;SDS011;4746;35.664;139.738;2022-09-09T13:27:01;4.03;;;2.40;;
9413;SDS011;4746;35.664;139.738;2022-09-09T13:30:20;3.30;;;2.25;;
9413;SDS011;4746;35.664;139.738;2022-09-09T13:35:47;5.65;;;2.30;;
9413;SDS011;4746;35.664;139.738;2022-09-09T13:38:25;2.72;;;1.60;;
9413;SDS011;4746;35.664;139.738;2022-09-09T13:43:34;3.33;;;1.85;;
9413;SDS011;4746;35.664;139.738;2022-09-09T13:54:11;3.95;;;1.90;;
9413;SDS011;4746;35.664;139.738;2022-09-09T13:56:42;3.63;;;1.55;;
9413;SDS011;4746;35.664;139.738;2022-09-09T13:59:11;3.63;;;1.73;;
9413;SDS011;4746;35.664;139.738;2022-09-09T14:01:47;2.03;;;1.65;;
9413;SDS011;4746;35.664;139.738;2022-09-09T14:04:15;2.92;;;1.90;;
9413;SDS011;4746;35.664;139.738;2022-09-09T14:06:42;2.75;;;1.23;;
9413;SDS011;4746;35.664;139.738;2022-09-09T14:09:12;5.70;;;1.52;;
9413;SDS011;4746;35.664;139.738;2022-09-09T14:11:42;3.15;;;1.45;;
9413;SDS011;4746;35.664;139.738;2022-09-09T14:14:11;2.70;;;1.55;;
9413;SDS011;4746;35.664;139.738;2022-09-09T14:16:40;2.17;;;1.40;;
9413;SDS011;4746;35.664;139.738;2022-09-09T14:19:08;3.25;;;1.27;;
9413;SDS011;4746;35.664;139.738;2022-09-09T14:21:36;3.85;;;1.63;;
9413;SDS011;4746;35.664;139.738;2022-09-09T14:24:04;2.05;;;1.38;;
9413;SDS011;4746;35.664;139.738;2022-09-09T14:26:32;2.90;;;1.27;;
9413;SDS011;4746;35.664;139.738;2022-09-09T14:28:59;6.18;;;1.55;;
9413;SDS011;4746;35.664;139.738;2022-09-09T14:31:27;4.78;;;1.70;;
9413;SDS011;4746;35.664;139.738;2022-09-09T14:33:55;1.40;;;1.30;;
9413;SDS011;4746;35.664;139.738;2022-09-09T14:36:22;3.65;;;1.80;;
9413;SDS011;4746;35.664;139.738;2022-09-09T14:38:50;2.25;;;1.60;;
9413;SDS011;4746;35.664;139.738;2022-09-09T14:41:18;2.60;;;1.75;;
9413;SDS011;4746;35.664;139.738;2022-09-09T14:43:48;5.10;;;1.83;;
9413;SDS011;4746;35.664;139.738;2022-09-09T14:46:18;2.92;;;2.10;;
9413;SDS011;4746;35.664;139.738;2022-09-09T14:48:46;2.67;;;1.60;;
9413;SDS011;4746;35.664;139.738;2022-09-09T14:51:18;4.82;;;2.40;;
9413;SDS011;4746;35.664;139.738;2022-09-09T14:53:54;3.90;;;2.35;;
9413;SDS011;4746;35.664;139.738;2022-09-09T14:56:25;3.58;;;1.85;;
9413;SDS011;4746;35.664;139.738;2022-09-09T14:58:56;3.90;;;1.98;;
9413;SDS011;4746;35.664;139.738;2022-09-09T15:01:28;6.25;;;2.50;;
9413;SDS011;4746;35.664;139.738;2022-09-09T15:03:58;3.63;;;1.80;;
9413;SDS011;4746;35.664;139.738;2022-09-09T15:06:31;3.47;;;2.10;;
9413;SDS011;4746;35.664;139.738;2022-09-09T15:09:04;4.78;;;2.20;;
9413;SDS011;4746;35.664;139.738;2022-09-09T15:11:34;3.35;;;2.08;;
9413;SDS011;4746;35.664;139.738;2022-09-09T15:14:03;2.85;;;1.92;;
9413;SDS011;4746;35.664;139.738;2022-09-09T15:16:32;1.98;;;1.58;;
9413;SDS011;4746;35.664;139.738;2022-09-09T15:19:01;3.05;;;1.70;;
9413;SDS011;4746;35.664;139.738;2022-09-09T15:21:31;3.22;;;1.52;;
9413;SDS011;4746;35.664;139.738;2022-09-09T15:24:01;5.50;;;1.90;;
9413;SDS011;4746;35.664;139.738;2022-09-09T15:26:30;3.10;;;1.95;;
9413;SDS011;4746;35.664;139.738;2022-09-09T15:28:58;4.15;;;1.92;;
9413;SDS011;4746;35.664;139.738;2022-09-09T15:31:27;4.80;;;1.83;;
9413;SDS011;4746;35.664;139.738;2022-09-09T15:34:00;2.85;;;1.88;;
9413;SDS011;4746;35.664;139.738;2022-09-09T15:36:37;2.78;;;1.88;;
9413;SDS011;4746;35.664;139.738;2022-09-09T15:39:08;3.08;;;2.08;;
9413;SDS011;4746;35.664;139.738;2022-09-09T15:41:47;3.50;;;1.60;;
9413;SDS011;4746;35.664;139.738;2022-09-09T15:44:15;4.03;;;1.88;;
9413;SDS011;4746;35.664;139.738;2022-09-09T15:46:46;3.60;;;1.52;;
9413;SDS011;4746;35.664;139.738;2022-09-09T15:49:20;2.55;;;1.80;;
9413;SDS011;4746;35.664;139.738;2022-09-09T15:51:55;1.88;;;1.52;;
9413;SDS011;4746;35.664;139.738;2022-09-09T15:54:32;4.50;;;2.08;;
9413;SDS011;4746;35.664;139.738;2022-09-09T15:57:05;3.13;;;1.80;;
9413;SDS011;4746;35.664;139.738;2022-09-09T15:59:37;3.35;;;1.30;;
9413;SDS011;4746;35.664;139.738;2022-09-09T16:02:05;4.68;;;1.70;;
9413;SDS011;4746;35.664;139.738;2022-09-09T16:04:35;2.55;;;1.70;;
9413;SDS011;4746;35.664;139.738;2022-09-09T16:07:03;3.95;;;1.45;;
9413;SDS011;4746;35.664;139.738;2022-09-09T16:09:32;2.95;;;1.83;;
9413;SDS011;4746;35.664;139.738;2022-09-09T16:12:01;2.45;;;1.52;;
9413;SDS011;4746;35.664;139.738;2022-09-09T16:14:35;3.88;;;1.70;;
9413;SDS011;4746;35.664;139.738;2022-09-09T16:17:04;2.50;;;2.00;;
9413;SDS011;4746;35.664;139.738;2022-09-09T16:19:32;2.20;;;1.63;;
9413;SDS011;4746;35.664;139.738;2022-09-09T16:22:03;5.30;;;1.80;;
9413;SDS011;4746;35.664;139.738;2022-09-09T16:24:32;3.65;;;1.95;;
9413;SDS011;4746;35.664;139.738;2022-09-09T16:26:59;2.72;;;1.83;;
9413;SDS011;4746;35.664;139.738;2022-09-09T16:29:28;3.38;;;1.90;;
9413;SDS011;4746;35.664;139.738;2022-09-09T16:31:56;2.38;;;1.85;;
9413;SDS011;4746;35.664;139.738;2022-09-09T16:34:25;3.15;;;1.90;;
9413;SDS011;4746;35.664;139.738;2022-09-09T16:36:53;4.82;;;1.75;;
9413;SDS011;4746;35.664;139.738;2022-09-09T16:39:21;3.28;;;1.75;;
9413;SDS011;4746;35.664;139.738;2022-09-09T16:41:49;4.28;;;1.55;;
9413;SDS011;4746;35.664;139.738;2022-09-09T16:44:17;4.65;;;1.80;;
9413;SDS011;4746;35.664;139.738;2022-09-09T16:46:46;3.20;;;1.73;;
9413;SDS011;4746;35.664;139.738;2022-09-09T16:49:17;1.88;;;1.70;;
9413;SDS011;4746;35.664;139.738;2022-09-09T16:51:49;2.95;;;2.00;;
9413;SDS011;4746;35.664;139.738;2022-09-09T16:54:21;4.13;;;2.10;;
9413;SDS011;4746;35.664;139.738;2022-09-09T16:56:52;3.80;;;1.98;;
9413;SDS011;4746;35.664;139.738;2022-09-09T16:59:20;3.83;;;2.00;;
9413;SDS011;4746;35.664;139.738;2022-09-09T17:01:49;3.03;;;1.77;;
9413;SDS011;4746;35.664;139.738;2022-09-09T17:04:21;6.60;;;1.90;;
9413;SDS011;4746;35.664;139.738;2022-09-09T17:06:53;4.75;;;1.80;;
9413;SDS011;4746;35.664;139.738;2022-09-09T17:09:22;2.60;;;1.45;;
9413;SDS011;4746;35.664;139.738;2022-09-09T17:11:56;3.42;;;1.60;;
9413;SDS011;4746;35.664;139.738;2022-09-09T17:14:24;2.20;;;1.30;;
9413;SDS011;4746;35.664;139.738;2022-09-09T17:16:52;3.80;;;1.20;;
9413;SDS011;4746;35.664;139.738;2022-09-09T17:19:19;2.53;;;1.40;;
9413;SDS011;4746;35.664;139.738;2022-09-09T17:21:49;3.05;;;1.70;;
9413;SDS011;4746;35.664;139.738;2022-09-09T17:24:17;3.20;;;1.88;;
9413;SDS011;4746;35.664;139.738;2022-09-09T17:26:44;3.53;;;1.70;;
9413;SDS011;4746;35.664;139.738;2022-09-09T17:29:12;2.90;;;1.60;;
9413;SDS011;4746;35.664;139.738;2022-09-09T17:31:39;2.78;;;1.45;;
9413;SDS011;4746;35.664;139.738;2022-09-09T17:34:08;2.42;;;1.88;;
9413;SDS011;4746;35.664;139.738;2022-09-09T17:36:36;2.72;;;1.40;;
9413;SDS011;4746;35.664;139.738;2022-09-09T17:39:05;3.38;;;1.85;;
9413;SDS011;4746;35.664;139.738;2022-09-09T17:41:34;3.20;;;1.85;;
9413;SDS011;4746;35.664;139.738;2022-09-09T17:44:04;4.15;;;2.65;;
9413;SDS011;4746;35.664;139.738;2022-09-09T17:46:35;3.00;;;2.03;;
9413;SDS011;4746;35.664;139.738;2022-09-09T17:49:10;5.28;;;2.00;;
9413;SDS011;4746;35.664;139.738;2022-09-09T17:51:41;3.35;;;2.10;;
9413;SDS011;4746;35.664;139.738;2022-09-09T17:54:12;3.47;;;2.28;;
9413;SDS011;4746;35.664;139.738;2022-09-09T17:56:44;2.42;;;2.22;;